Hauptseite
METAR-TAF:

METAR-TAF

Flughäfen :

Flughafen Rimini

Rimini, Italien

Breite: 44-02N, Länge: 012-37E, Höhe: 12 m

Beobachtung

Neuester Wetterbericht von vor 23 Minuten, um 10:15 UTC
Wind 4 kt aus Nord/Nordost
Temperatur 29°C
Luftfeuchtigkeit 62%
Luftdruck 1014 hPa
Sichtweite 10 km oder mehr
Leicht bewölkt in der Höhe von 3000 ft

METAR: LIPR 181015Z 02004KT 9999 FEW030 29/21 Q1014

Zeit: 12:38 (10:38 UTC)

Prognose

Neuester Wetterbericht von vor 2 Stunden und 38 Minuten, um 08:00 UTC
Gültige Prognose vom 18 um 09 UTC bis 18 um 18 UTC
Wind 6 kt aus Nord/Nordost
Sichtweite 10 km oder mehr
keine Wolken unter 1500 m und keine Kumulonimbus oder Gewitterwolken
Übergehend zu
vom 18 um 10 UTC bis 18 um 12 UTC
Wind 12 kt aus Ost/Nordost

TAF: LIPR 180800Z 1809/1818 03006KT CAVOK BECMG 1810/1812 06012KT

Wetterbeobachtungen und Prognosen von mehr als 4000 Flughäfen (METAR und TAF Bericht).

Die verfügbaren Stationen werden durch gelbe und rote Markierungen auf der Karte dargestellt.

Führen Sie die Maus auf sie, um den Namen der Station zu sehen.

Darauf klicken, um die Beobachtung von Wetterbeobachtungen und Prognosen zu sehen.

Um die Karte zu ändern : klicken Sie auf den grünen Tasten mit einem schwarzen Kreuz Zum Vergrößern, auf den grünen Button mit einem Gedankenstrich zu verkleinern, oder auf die grünen Pfeile für benachbarte Karten.


METAR-TAF: